createdAt,value
2023-03-16T00:00:20.698Z,39.33
2023-03-16T00:02:47.948Z,39.53
2023-03-16T00:05:21.487Z,41.05
2023-03-16T00:07:48.934Z,40.47
2023-03-16T00:10:16.456Z,38.72
2023-03-16T00:12:45.242Z,36.40
2023-03-16T00:15:13.114Z,35.20
2023-03-16T00:17:40.292Z,40.60
2023-03-16T00:20:11.305Z,34.20
2023-03-16T00:22:38.804Z,33.80
2023-03-16T00:25:06.820Z,34.63
2023-03-16T00:27:34.217Z,39.03
2023-03-16T00:30:03.725Z,36.78
2023-03-16T00:32:34.468Z,37.17
2023-03-16T00:35:03.708Z,34.72
2023-03-16T00:37:33.234Z,37.33
2023-03-16T00:40:01.566Z,38.13
2023-03-16T00:42:30.716Z,36.83
2023-03-16T00:44:59.364Z,38.95
2023-03-16T00:47:34.654Z,37.08
2023-03-16T00:50:02.491Z,41.55
2023-03-16T00:52:30.447Z,37.75
2023-03-16T00:54:57.925Z,36.08
2023-03-16T00:57:26.393Z,36.80
2023-03-16T00:59:53.665Z,37.53
2023-03-16T01:02:23.828Z,38.85
2023-03-16T01:04:54.969Z,39.00
2023-03-16T01:07:22.352Z,36.28
2023-03-16T01:09:51.868Z,38.35
2023-03-16T01:12:20.198Z,35.60
2023-03-16T01:14:48.825Z,37.75
2023-03-16T01:17:18.247Z,32.20
2023-03-16T01:19:46.313Z,37.08
2023-03-16T01:22:14.451Z,37.22
2023-03-16T01:24:45.498Z,36.15
2023-03-16T01:27:13.217Z,41.35
2023-03-16T01:29:43.922Z,37.70
2023-03-16T01:32:12.552Z,40.15
2023-03-16T01:34:40.128Z,41.40
2023-03-16T01:37:07.904Z,37.72
2023-03-16T01:39:36.121Z,30.85
2023-03-16T01:42:03.945Z,34.83
2023-03-16T01:44:51.787Z,36.33
2023-03-16T01:47:19.451Z,36.58
2023-03-16T01:49:48.517Z,39.42
2023-03-16T01:52:21.704Z,39.00
2023-03-16T01:55:00.830Z,34.08
2023-03-16T01:57:35.584Z,31.08
2023-03-16T02:00:11.092Z,34.75
2023-03-16T02:02:43.804Z,34.67
2023-03-16T02:05:23.357Z,42.85
2023-03-16T02:07:59.511Z,38.22
2023-03-16T02:10:29.439Z,35.80
2023-03-16T02:12:58.233Z,37.97
2023-03-16T02:15:26.024Z,35.67
2023-03-16T02:17:53.887Z,36.15
2023-03-16T02:20:49.100Z,32.25
2023-03-16T02:23:20.054Z,33.20
2023-03-16T02:26:15.825Z,31.25
2023-03-16T02:29:16.561Z,31.63
2023-03-16T02:31:44.055Z,28.75
2023-03-16T02:34:13.718Z,27.67
2023-03-16T02:36:42.635Z,31.05
2023-03-16T02:39:09.881Z,33.35
2023-03-16T02:41:37.529Z,24.70
2023-03-16T02:44:15.465Z,27.65
2023-03-16T02:46:44.255Z,25.63
2023-03-16T02:49:22.963Z,25.95
2023-03-16T02:51:50.341Z,25.45
2023-03-16T02:54:17.775Z,24.02
2023-03-16T02:56:45.428Z,27.05
2023-03-16T02:59:13.780Z,23.90
2023-03-16T03:01:41.210Z,24.75
2023-03-16T03:04:08.893Z,23.27
2023-03-16T03:06:36.380Z,22.23
2023-03-16T03:09:07.587Z,23.42
2023-03-16T03:11:35.119Z,23.85
2023-03-16T03:14:02.574Z,25.40
2023-03-16T03:16:30.514Z,25.17
2023-03-16T03:18:59.779Z,22.10
2023-03-16T03:21:26.992Z,21.35
2023-03-16T03:23:57.430Z,24.92
2023-03-16T03:26:25.142Z,25.00
2023-03-16T03:28:52.958Z,21.65
2023-03-16T03:31:22.924Z,20.35
2023-03-16T03:33:50.444Z,20.98
2023-03-16T03:36:17.970Z,22.25
2023-03-16T03:38:45.584Z,19.50
2023-03-16T03:41:13.100Z,19.77
2023-03-16T03:43:41.687Z,19.77
2023-03-16T03:46:09.858Z,22.67
2023-03-16T03:48:37.239Z,23.25
2023-03-16T03:51:05.846Z,22.35
2023-03-16T03:53:33.696Z,20.02
2023-03-16T03:56:01.165Z,21.23
2023-03-16T03:58:28.656Z,20.00
2023-03-16T04:00:56.091Z,20.13
2023-03-16T04:03:23.632Z,21.75
2023-03-16T04:05:52.183Z,18.65
2023-03-16T04:08:19.594Z,21.52
2023-03-16T04:10:47.626Z,22.83
2023-03-16T04:13:15.045Z,18.55
2023-03-16T04:15:42.462Z,22.08
2023-03-16T04:18:09.946Z,24.80
2023-03-16T04:20:38.319Z,21.92
2023-03-16T04:23:06.962Z,17.65
2023-03-16T04:25:38.864Z,20.08
2023-03-16T04:28:06.502Z,21.35
2023-03-16T04:30:40.158Z,21.65
2023-03-16T04:33:07.611Z,19.00
2023-03-16T04:35:34.964Z,19.45
2023-03-16T04:38:04.369Z,21.33
2023-03-16T04:40:31.854Z,25.15
2023-03-16T04:42:59.455Z,17.20
2023-03-16T04:45:26.953Z,21.08
2023-03-16T04:47:55.304Z,20.33
2023-03-16T04:50:23.380Z,19.40
2023-03-16T04:52:51.748Z,19.95
2023-03-16T04:55:18.934Z,20.45
2023-03-16T04:57:46.241Z,20.38
2023-03-16T05:00:21.807Z,20.20
2023-03-16T05:02:50.372Z,23.77
2023-03-16T05:05:21.816Z,22.70
2023-03-16T05:07:49.777Z,20.13
2023-03-16T05:10:22.220Z,25.17
2023-03-16T05:12:49.521Z,20.77
2023-03-16T05:15:17.965Z,20.10
2023-03-16T05:17:46.936Z,21.38
2023-03-16T05:20:16.403Z,21.30
2023-03-16T05:22:48.385Z,24.63
2023-03-16T05:25:18.086Z,21.90
2023-03-16T05:27:50.711Z,23.42
2023-03-16T05:30:20.476Z,23.58
2023-03-16T05:32:47.851Z,20.20
2023-03-16T05:35:16.310Z,21.52
2023-03-16T05:37:44.730Z,19.25
2023-03-16T05:40:19.845Z,22.10
2023-03-16T05:42:49.032Z,24.20
2023-03-16T05:45:17.908Z,23.52
2023-03-16T05:47:57.158Z,23.38
2023-03-16T05:50:25.079Z,25.50
2023-03-16T05:52:52.710Z,26.33
2023-03-16T05:55:20.289Z,23.13
2023-03-16T05:57:47.555Z,25.25
2023-03-16T06:00:16.835Z,20.90
2023-03-16T06:02:48.122Z,22.23
2023-03-16T06:05:16.943Z,21.60
2023-03-16T06:07:46.660Z,25.25
2023-03-16T06:10:14.813Z,21.88
2023-03-16T06:12:49.140Z,30.30
2023-03-16T06:15:16.632Z,22.10
2023-03-16T06:17:44.094Z,16.58
2023-03-16T06:20:13.679Z,19.95
2023-03-16T06:22:42.551Z,18.98
2023-03-16T06:25:11.428Z,21.10
2023-03-16T06:27:39.095Z,21.48
2023-03-16T06:30:12.287Z,15.55
2023-03-16T06:32:45.706Z,17.55
2023-03-16T06:35:15.515Z,13.40
2023-03-16T06:37:42.645Z,23.38
2023-03-16T06:40:10.556Z,15.48
2023-03-16T06:42:38.267Z,15.48
2023-03-16T06:45:07.080Z,17.30
2023-03-16T06:47:34.533Z,14.45
2023-03-16T06:50:01.971Z,14.02
2023-03-16T06:52:30.907Z,14.82
2023-03-16T06:54:58.882Z,15.50
2023-03-16T06:57:26.144Z,18.73
2023-03-16T06:59:53.344Z,15.02
2023-03-16T07:02:23.783Z,13.75
2023-03-16T07:04:51.061Z,10.40
2023-03-16T07:07:19.654Z,15.07
2023-03-16T07:09:48.712Z,13.90
2023-03-16T07:12:15.776Z,14.75
2023-03-16T07:14:43.171Z,14.35
2023-03-16T07:17:10.796Z,8.68
2023-03-16T07:19:44.332Z,12.85
2023-03-16T07:22:11.898Z,11.85
2023-03-16T07:24:39.245Z,13.98
2023-03-16T07:27:06.644Z,47.22
2023-03-16T07:29:34.588Z,45.17
2023-03-16T07:32:02.127Z,13.68
2023-03-16T07:34:29.498Z,13.55
2023-03-16T07:36:56.535Z,14.15
2023-03-16T07:39:24.224Z,11.40
2023-03-16T07:41:51.589Z,10.32
2023-03-16T07:44:18.858Z,13.52
2023-03-16T07:46:46.054Z,12.25
2023-03-16T07:49:17.051Z,11.60
2023-03-16T07:51:45.721Z,11.55
2023-03-16T07:54:14.270Z,14.90
2023-03-16T07:56:48.742Z,13.60
2023-03-16T07:59:16.575Z,35.05
2023-03-16T08:01:43.829Z,12.32
2023-03-16T08:04:12.698Z,13.55
2023-03-16T08:06:39.734Z,12.50
2023-03-16T08:09:06.855Z,8.57
2023-03-16T08:11:35.312Z,12.40
2023-03-16T08:14:02.694Z,11.00
2023-03-16T08:16:30.234Z,11.68
2023-03-16T08:18:57.785Z,9.63
2023-03-16T08:21:25.241Z,20.50
2023-03-16T08:23:53.013Z,135.48
2023-03-16T08:26:21.625Z,64.07
2023-03-16T08:28:52.319Z,24.85
2023-03-16T08:31:24.038Z,18.88
2023-03-16T08:33:52.096Z,8.35
2023-03-16T08:36:21.221Z,10.95
2023-03-16T08:39:03.781Z,11.48
2023-03-16T08:41:34.928Z,11.90
2023-03-16T08:44:03.452Z,15.98
2023-03-16T08:46:31.245Z,7.78
2023-03-16T08:48:59.834Z,13.05
2023-03-16T08:51:27.773Z,24.13
2023-03-16T08:53:55.088Z,14.30
2023-03-16T08:56:22.899Z,18.75
2023-03-16T08:58:51.528Z,11.75
2023-03-16T09:01:20.065Z,16.08
2023-03-16T09:03:47.513Z,17.17
2023-03-16T09:06:17.374Z,18.98
2023-03-16T09:08:45.730Z,20.27
2023-03-16T09:11:14.716Z,14.25
2023-03-16T09:13:42.968Z,12.07
2023-03-16T09:16:12.469Z,15.10
2023-03-16T09:18:40.830Z,16.90
2023-03-16T09:21:10.819Z,13.15
2023-03-16T09:23:37.936Z,21.25
2023-03-16T09:26:07.845Z,15.98
2023-03-16T09:28:36.558Z,6.00
2023-03-16T09:31:04.008Z,14.70
2023-03-16T09:33:34.176Z,8.77
2023-03-16T09:36:03.353Z,11.63
2023-03-16T09:38:32.425Z,14.95
2023-03-16T09:41:07.594Z,23.88
2023-03-16T09:43:43.757Z,10.75
2023-03-16T09:46:35.016Z,17.63
2023-03-16T09:49:05.678Z,23.70
2023-03-16T09:52:00.709Z,23.98
2023-03-16T09:54:56.294Z,18.42
2023-03-16T09:57:36.407Z,12.73
2023-03-16T10:00:27.825Z,18.20
2023-03-16T10:03:14.736Z,18.20
2023-03-16T10:05:43.046Z,10.95
2023-03-16T10:08:21.170Z,8.73
2023-03-16T10:11:12.754Z,13.48
2023-03-16T10:13:53.288Z,9.25
2023-03-16T10:16:50.746Z,9.23
2023-03-16T10:19:40.871Z,11.02
2023-03-16T10:22:21.724Z,8.57
2023-03-16T10:25:12.088Z,11.23
2023-03-16T10:27:43.679Z,16.33
2023-03-16T10:30:38.868Z,8.90
2023-03-16T10:33:26.041Z,11.63
2023-03-16T10:36:19.649Z,14.75
2023-03-16T10:38:52.347Z,9.93
2023-03-16T10:41:20.692Z,10.57
2023-03-16T10:43:54.623Z,26.02
2023-03-16T10:46:23.093Z,6.85
2023-03-16T10:48:59.618Z,15.00
2023-03-16T10:51:34.015Z,8.25
2023-03-16T10:54:32.804Z,4.70
2023-03-16T10:57:03.869Z,5.55
2023-03-16T10:59:35.861Z,4.28
2023-03-16T11:02:23.969Z,4.57
2023-03-16T11:04:57.716Z,6.28
2023-03-16T11:07:25.742Z,17.90
2023-03-16T11:09:56.031Z,11.68
2023-03-16T11:12:27.811Z,16.52
2023-03-16T11:14:56.431Z,23.48
2023-03-16T11:17:36.797Z,16.30
2023-03-16T11:20:15.164Z,5.68
2023-03-16T11:22:48.774Z,9.93
2023-03-16T11:25:30.772Z,5.05
2023-03-16T11:28:13.913Z,5.40
2023-03-16T11:30:47.167Z,14.47
2023-03-16T11:33:15.760Z,10.80
2023-03-16T11:36:01.461Z,18.65
2023-03-16T11:38:32.884Z,25.48
2023-03-16T11:41:29.269Z,8.57
2023-03-16T11:44:06.024Z,10.52
2023-03-16T11:46:42.964Z,13.32
2023-03-16T11:49:09.959Z,5.03
2023-03-16T11:51:56.048Z,5.47
2023-03-16T11:54:49.029Z,26.17
2023-03-16T11:57:49.129Z,5.90
2023-03-16T12:00:42.973Z,21.02
2023-03-16T12:03:46.130Z,10.90
2023-03-16T12:06:31.085Z,10.27
2023-03-16T12:09:26.907Z,5.82
2023-03-16T12:11:58.053Z,13.20
2023-03-16T12:14:27.433Z,12.00
2023-03-16T12:17:26.213Z,13.93
2023-03-16T12:20:14.282Z,12.13
2023-03-16T12:22:52.576Z,25.23
2023-03-16T12:25:22.418Z,11.60
2023-03-16T12:27:54.773Z,29.02
2023-03-16T12:30:59.543Z,7.25
2023-03-16T12:33:38.461Z,6.22
2023-03-16T12:36:24.030Z,5.45
2023-03-16T12:39:01.641Z,10.70
2023-03-16T12:42:01.475Z,24.33
2023-03-16T12:44:56.841Z,13.70
2023-03-16T12:47:52.572Z,11.38
2023-03-16T12:50:21.808Z,10.10
2023-03-16T12:52:52.143Z,13.07
2023-03-16T12:55:39.931Z,6.07
2023-03-16T12:58:09.443Z,5.65
2023-03-16T13:00:43.008Z,6.78
2023-03-16T13:03:21.647Z,15.10
2023-03-16T13:05:59.081Z,8.20
2023-03-16T13:08:29.266Z,6.75
2023-03-16T13:11:06.890Z,8.77
2023-03-16T13:13:35.961Z,8.55
2023-03-16T13:16:11.323Z,7.25
2023-03-16T13:18:50.110Z,8.18
2023-03-16T13:21:21.667Z,8.50
2023-03-16T13:23:55.216Z,9.77
2023-03-16T13:26:50.182Z,4.82
2023-03-16T13:29:28.932Z,8.15
2023-03-16T13:32:19.868Z,6.20
2023-03-16T13:34:53.146Z,6.72
2023-03-16T13:37:23.873Z,9.80
2023-03-16T13:40:00.079Z,7.80
2023-03-16T13:42:32.111Z,8.02
2023-03-16T13:45:15.550Z,8.48
2023-03-16T13:47:52.014Z,9.52
2023-03-16T13:50:21.099Z,5.68
2023-03-16T13:53:02.960Z,4.40
2023-03-16T13:55:35.010Z,4.43
2023-03-16T13:58:04.957Z,4.75
2023-03-16T14:00:39.166Z,4.93
2023-03-16T14:03:18.039Z,5.72
2023-03-16T14:05:45.993Z,2.58
2023-03-16T14:08:24.223Z,4.15
2023-03-16T14:11:00.536Z,22.20
2023-03-16T14:13:29.778Z,6.13
2023-03-16T14:16:15.648Z,18.73
2023-03-16T14:18:52.572Z,7.68
2023-03-16T14:21:28.885Z,19.00
2023-03-16T14:24:05.298Z,28.67
2023-03-16T14:26:44.272Z,17.40
2023-03-16T14:29:27.470Z,18.48
2023-03-16T14:31:56.572Z,22.02
2023-03-16T14:34:29.879Z,22.60
2023-03-16T14:37:13.520Z,22.13
2023-03-16T14:39:41.516Z,7.95
2023-03-16T14:42:30.268Z,8.40
2023-03-16T14:45:09.133Z,17.23
2023-03-16T14:47:43.427Z,19.45
2023-03-16T14:50:17.229Z,7.72
2023-03-16T14:55:17.705Z,17.65
2023-03-16T14:57:45.960Z,12.70
2023-03-16T15:00:15.905Z,6.78
2023-03-16T15:02:58.163Z,9.77
2023-03-16T15:05:35.092Z,8.27
2023-03-16T15:08:05.060Z,7.05
2023-03-16T15:10:35.587Z,5.80
2023-03-16T15:13:13.480Z,7.03
2023-03-16T15:15:43.049Z,6.53
2023-03-16T15:18:11.049Z,11.05
2023-03-16T15:20:51.045Z,7.78
2023-03-16T15:23:18.616Z,4.28
2023-03-16T15:25:47.482Z,5.18
2023-03-16T15:28:17.726Z,15.68
2023-03-16T15:30:47.929Z,23.73
2023-03-16T15:33:17.977Z,41.88
2023-03-16T15:35:49.775Z,6.38
2023-03-16T15:38:23.723Z,50.33
2023-03-16T15:40:52.411Z,40.63
2023-03-16T15:43:29.974Z,49.30
2023-03-16T15:46:03.839Z,108.13
2023-03-16T15:48:31.844Z,247.38
2023-03-16T15:51:09.346Z,332.98
2023-03-16T15:53:50.494Z,190.13
2023-03-16T15:56:30.166Z,100.00
2023-03-16T15:59:04.251Z,71.95
2023-03-16T16:01:39.525Z,65.45
2023-03-16T16:04:16.012Z,8.07
2023-03-16T16:06:43.874Z,6.20
2023-03-16T16:09:13.201Z,8.77
2023-03-16T16:11:41.667Z,9.05
2023-03-16T16:14:18.450Z,32.55
2023-03-16T16:16:47.407Z,35.53
2023-03-16T16:19:15.947Z,119.35
2023-03-16T16:21:44.554Z,252.77
2023-03-16T16:24:12.755Z,91.43
2023-03-16T16:26:55.671Z,178.35
2023-03-16T16:29:27.968Z,99.83
2023-03-16T16:31:56.734Z,25.95
2023-03-16T16:34:30.280Z,99.32
2023-03-16T16:36:59.046Z,73.07
2023-03-16T16:39:27.679Z,14.70
2023-03-16T16:41:56.978Z,7.13
2023-03-16T16:44:30.894Z,18.25
2023-03-16T16:47:00.140Z,18.65
2023-03-16T16:49:31.256Z,14.25
2023-03-16T16:51:59.966Z,7.05
2023-03-16T16:54:32.183Z,11.00
2023-03-16T16:57:02.136Z,6.93
2023-03-16T16:59:34.288Z,24.10
2023-03-16T17:02:16.601Z,15.98
2023-03-16T17:04:45.252Z,13.15
2023-03-16T17:07:13.364Z,8.73
2023-03-16T17:09:41.450Z,8.38
2023-03-16T17:12:18.928Z,11.70
2023-03-16T17:14:46.455Z,5.78
2023-03-16T17:17:22.733Z,12.68
2023-03-16T17:19:50.960Z,6.43
2023-03-16T17:22:24.949Z,7.95
2023-03-16T17:24:54.291Z,6.63
2023-03-16T17:27:33.359Z,7.78
2023-03-16T17:30:03.449Z,8.32
2023-03-16T17:32:31.320Z,7.55
2023-03-16T17:34:59.725Z,8.55
2023-03-16T17:37:28.280Z,7.43
2023-03-16T17:39:57.802Z,9.18
2023-03-16T17:42:26.854Z,7.97
2023-03-16T17:44:55.052Z,8.23
2023-03-16T17:47:28.404Z,9.15
2023-03-16T17:49:57.699Z,7.88
2023-03-16T17:52:28.768Z,7.00
2023-03-16T17:54:56.984Z,7.57
2023-03-16T17:57:36.606Z,6.13
2023-03-16T18:00:22.167Z,5.15
2023-03-16T18:03:14.751Z,4.13
2023-03-16T18:05:43.675Z,7.95
2023-03-16T18:08:22.415Z,7.85
2023-03-16T18:11:02.639Z,8.70
2023-03-16T18:13:30.268Z,8.65
2023-03-16T18:15:58.534Z,4.68
2023-03-16T18:18:31.220Z,9.00
2023-03-16T18:21:06.421Z,8.77
2023-03-16T18:23:37.732Z,9.02
2023-03-16T18:26:07.872Z,5.10
2023-03-16T18:28:36.561Z,4.57
2023-03-16T18:31:07.675Z,6.22
2023-03-16T18:33:40.238Z,13.88
2023-03-16T18:36:19.621Z,12.20
2023-03-16T18:38:53.268Z,13.88
2023-03-16T18:41:29.792Z,16.80
2023-03-16T18:44:19.925Z,31.40
2023-03-16T18:47:02.489Z,30.05
2023-03-16T18:49:41.449Z,14.68
2023-03-16T18:52:20.355Z,12.95
2023-03-16T18:54:50.239Z,19.38
2023-03-16T18:57:25.727Z,10.93
2023-03-16T18:59:54.674Z,11.63
2023-03-16T19:05:31.547Z,12.35
2023-03-16T19:08:00.078Z,11.35
2023-03-16T19:10:35.791Z,16.17
2023-03-16T19:13:05.509Z,11.52
2023-03-16T19:15:36.126Z,10.20
2023-03-16T19:18:06.277Z,9.10
2023-03-16T19:20:36.086Z,10.38
2023-03-16T19:23:09.566Z,70.53
2023-03-16T19:25:41.817Z,86.45
2023-03-16T19:28:34.974Z,70.18
2023-03-16T19:31:17.028Z,83.32
2023-03-16T19:33:46.852Z,135.40
2023-03-16T19:36:25.622Z,179.13
2023-03-16T19:38:55.083Z,47.83
2023-03-16T19:41:32.657Z,17.75
2023-03-16T19:44:16.201Z,23.42
2023-03-16T19:46:45.445Z,21.17
2023-03-16T19:49:23.687Z,10.82
2023-03-16T19:51:54.906Z,13.48
2023-03-16T19:54:33.631Z,10.18
2023-03-16T19:57:21.906Z,15.77
2023-03-16T19:59:58.308Z,10.27
2023-03-16T20:02:30.941Z,11.43
2023-03-16T20:04:59.228Z,15.13
2023-03-16T20:07:30.140Z,13.38
2023-03-16T20:09:58.674Z,20.40
2023-03-16T20:12:30.486Z,21.65
2023-03-16T20:15:00.474Z,23.73
2023-03-16T20:17:41.118Z,24.88
2023-03-16T20:20:22.534Z,22.10
2023-03-16T20:22:50.923Z,24.30
2023-03-16T20:25:19.813Z,20.20
2023-03-16T20:27:57.425Z,23.60
2023-03-16T20:30:27.049Z,19.92
2023-03-16T20:32:57.755Z,15.30
2023-03-16T20:35:29.500Z,15.52
2023-03-16T20:37:57.488Z,13.73
2023-03-16T20:40:27.594Z,18.95
2023-03-16T20:42:55.884Z,16.88
2023-03-16T20:45:30.081Z,30.92
2023-03-16T20:47:59.725Z,74.18
2023-03-16T20:50:31.713Z,85.13
2023-03-16T20:53:00.997Z,112.20
2023-03-16T20:55:29.908Z,126.93
2023-03-16T20:57:58.390Z,84.93
2023-03-16T21:00:35.495Z,47.88
2023-03-16T21:03:17.279Z,87.20
2023-03-16T21:05:46.552Z,100.68
2023-03-16T21:08:22.494Z,139.25
2023-03-16T21:10:52.797Z,97.90
2023-03-16T21:13:41.164Z,58.10
2023-03-16T21:16:11.914Z,113.65
2023-03-16T21:18:40.176Z,53.20
2023-03-16T21:21:15.502Z,27.85
2023-03-16T21:23:43.750Z,26.50
2023-03-16T21:26:21.109Z,29.80
2023-03-16T21:28:58.783Z,34.63
2023-03-16T21:31:27.496Z,33.42
2023-03-16T21:33:56.009Z,37.60
2023-03-16T21:36:28.496Z,29.13
2023-03-16T21:38:58.525Z,34.17
2023-03-16T21:41:26.002Z,32.03
2023-03-16T21:43:54.783Z,28.10
2023-03-16T21:46:24.476Z,37.33
2023-03-16T21:48:55.883Z,33.47
2023-03-16T21:51:30.548Z,31.20
2023-03-16T21:53:58.641Z,31.23
2023-03-16T21:56:26.609Z,31.67
2023-03-16T21:58:54.931Z,29.10
2023-03-16T22:01:30.794Z,28.60
2023-03-16T22:04:15.886Z,26.75
2023-03-16T22:06:44.791Z,35.85
2023-03-16T22:09:20.241Z,39.00
2023-03-16T22:11:47.786Z,35.88
2023-03-16T22:14:17.207Z,40.63
2023-03-16T22:16:46.856Z,52.00
2023-03-16T22:19:14.896Z,45.60
2023-03-16T22:21:45.256Z,42.08
2023-03-16T22:24:23.808Z,38.65
2023-03-16T22:26:52.441Z,40.75
2023-03-16T22:29:21.542Z,44.22
2023-03-16T22:31:49.644Z,40.40
2023-03-16T22:34:43.348Z,37.72
2023-03-16T22:37:17.297Z,36.92
2023-03-16T22:39:51.146Z,38.08
2023-03-16T22:42:44.897Z,35.55
2023-03-16T22:48:03.256Z,37.15
2023-03-16T22:50:35.436Z,42.53
2023-03-16T22:53:06.157Z,46.53
2023-03-16T22:55:37.207Z,50.80
2023-03-16T22:58:25.628Z,48.33
2023-03-16T23:00:53.362Z,54.88
2023-03-16T23:03:22.892Z,62.00
2023-03-16T23:05:52.096Z,69.97
2023-03-16T23:09:09.049Z,61.22
2023-03-16T23:11:38.705Z,52.75
2023-03-16T23:14:21.442Z,54.90
2023-03-16T23:16:55.077Z,57.25
2023-03-16T23:19:34.357Z,64.13
2023-03-16T23:22:07.129Z,52.35
2023-03-16T23:24:36.371Z,59.10
2023-03-16T23:27:04.943Z,63.80
2023-03-16T23:29:32.574Z,56.50
2023-03-16T23:31:59.994Z,60.58
2023-03-16T23:34:27.423Z,60.88
2023-03-16T23:36:54.972Z,61.95
2023-03-16T23:39:22.430Z,66.32
2023-03-16T23:41:50.750Z,66.90
2023-03-16T23:44:22.285Z,61.50
2023-03-16T23:46:51.163Z,56.70
2023-03-16T23:49:24.441Z,58.88
2023-03-16T23:54:25.661Z,64.85
2023-03-16T23:56:53.014Z,74.55
2023-03-16T23:59:21.202Z,71.05
